createdAt,value
2023-12-04T00:00:17.961Z,18.83
2023-12-04T00:02:46.391Z,17.83
2023-12-04T00:05:14.833Z,16.73
2023-12-04T00:07:44.910Z,20.23
2023-12-04T00:10:13.382Z,12.03
2023-12-04T00:12:41.785Z,18.57
2023-12-04T00:15:10.895Z,17.93
2023-12-04T00:17:41.227Z,13.83
2023-12-04T00:20:10.536Z,17.10
2023-12-04T00:22:39.171Z,17.03
2023-12-04T00:25:09.513Z,15.03
2023-12-04T00:27:38.121Z,12.00
2023-12-04T00:30:07.318Z,16.83
2023-12-04T00:32:35.825Z,11.90
2023-12-04T00:35:04.261Z,16.17
2023-12-04T00:37:32.669Z,13.23
2023-12-04T00:40:01.162Z,17.43
2023-12-04T00:42:31.015Z,12.93
2023-12-04T00:45:00.039Z,12.53
2023-12-04T00:47:28.651Z,11.70
2023-12-04T00:49:57.176Z,17.30
2023-12-04T00:52:25.759Z,14.93
2023-12-04T00:54:54.831Z,15.27
2023-12-04T00:57:23.291Z,13.20
2023-12-04T00:59:53.048Z,17.80
2023-12-04T01:02:21.513Z,13.70
2023-12-04T01:04:49.960Z,13.53
2023-12-04T01:07:18.390Z,18.43
2023-12-04T01:09:46.809Z,16.10
2023-12-04T01:12:15.330Z,10.47
2023-12-04T01:14:43.717Z,17.70
2023-12-04T01:17:13.493Z,17.07
2023-12-04T01:19:42.133Z,16.30
2023-12-04T01:22:10.585Z,17.47
2023-12-04T01:24:39.004Z,12.43
2023-12-04T01:27:07.502Z,19.03
2023-12-04T01:29:35.885Z,15.20
2023-12-04T01:32:04.616Z,13.23
2023-12-04T01:34:34.413Z,17.30
2023-12-04T01:37:02.832Z,15.30
2023-12-04T01:39:31.278Z,14.00
2023-12-04T01:42:00.523Z,15.13
2023-12-04T01:44:29.028Z,14.97
2023-12-04T01:46:58.357Z,15.73
2023-12-04T01:49:27.036Z,16.47
2023-12-04T01:51:57.484Z,15.43
2023-12-04T01:54:26.371Z,14.93
2023-12-04T01:56:56.931Z,11.90
2023-12-04T01:59:25.352Z,15.00
2023-12-04T02:01:54.766Z,14.53
2023-12-04T02:04:23.523Z,12.80
2023-12-04T02:06:52.023Z,15.80
2023-12-04T02:09:22.035Z,12.03
2023-12-04T02:11:50.397Z,15.03
2023-12-04T02:14:18.790Z,14.30
2023-12-04T02:16:48.266Z,11.27
2023-12-04T02:19:16.903Z,14.40
2023-12-04T02:21:45.366Z,13.10
2023-12-04T02:24:15.359Z,11.97
2023-12-04T02:26:50.015Z,9.57
2023-12-04T02:29:32.948Z,6.30
2023-12-04T02:32:04.215Z,7.10
2023-12-04T02:34:35.368Z,3.03
2023-12-04T02:37:04.526Z,11.20
2023-12-04T02:39:34.446Z,11.00
2023-12-04T02:42:03.029Z,9.13
2023-12-04T02:44:31.451Z,9.50
2023-12-04T02:46:59.877Z,11.60
2023-12-04T02:49:28.387Z,14.10
2023-12-04T02:51:58.549Z,15.53
2023-12-04T02:54:27.069Z,13.87
2023-12-04T02:56:57.001Z,13.50
2023-12-04T02:59:25.461Z,14.57
2023-12-04T03:01:53.981Z,8.13
2023-12-04T03:04:22.489Z,12.83
2023-12-04T03:06:50.922Z,10.90
2023-12-04T03:09:19.383Z,7.23
2023-12-04T03:11:47.774Z,12.83
2023-12-04T03:14:17.659Z,9.83
2023-12-04T03:16:46.104Z,11.73
2023-12-04T03:19:14.678Z,10.93
2023-12-04T03:21:43.121Z,11.87
2023-12-04T03:24:11.552Z,9.87
2023-12-04T03:26:40.295Z,12.50
2023-12-04T03:29:08.682Z,9.37
2023-12-04T03:31:38.513Z,13.43
2023-12-04T03:34:07.127Z,10.67
2023-12-04T03:36:35.795Z,9.67
2023-12-04T03:39:04.332Z,12.43
2023-12-04T03:41:32.818Z,9.43
2023-12-04T03:44:01.225Z,12.40
2023-12-04T03:46:29.675Z,12.17
2023-12-04T03:48:59.573Z,10.47
2023-12-04T03:51:28.046Z,10.83
2023-12-04T03:53:56.568Z,4.50
2023-12-04T03:56:25.022Z,10.50
2023-12-04T03:58:54.022Z,9.93
2023-12-04T04:01:22.423Z,8.90
2023-12-04T04:03:50.863Z,7.00
2023-12-04T04:06:20.656Z,10.47
2023-12-04T04:08:49.078Z,9.93
2023-12-04T04:11:17.440Z,6.60
2023-12-04T04:13:45.843Z,10.57
2023-12-04T04:16:17.612Z,6.67
2023-12-04T04:18:46.179Z,7.90
2023-12-04T04:21:14.748Z,10.07
2023-12-04T04:23:44.541Z,5.07
2023-12-04T04:26:12.945Z,6.43
2023-12-04T04:28:41.449Z,6.70
2023-12-04T04:31:09.927Z,5.03
2023-12-04T04:33:38.558Z,4.17
2023-12-04T04:36:07.556Z,3.53
2023-12-04T04:38:35.888Z,5.87
2023-12-04T04:41:05.984Z,4.93
2023-12-04T04:43:34.588Z,3.23
2023-12-04T04:46:03.118Z,4.77
2023-12-04T04:48:31.639Z,7.57
2023-12-04T04:51:00.103Z,3.03
2023-12-04T04:53:28.512Z,8.13
2023-12-04T04:55:57.026Z,8.17
2023-12-04T04:58:26.865Z,10.43
2023-12-04T05:00:55.349Z,5.17
2023-12-04T05:03:25.285Z,9.27
2023-12-04T05:05:54.109Z,11.47
2023-12-04T05:08:22.553Z,10.93
2023-12-04T05:10:50.976Z,7.90
2023-12-04T05:13:19.473Z,8.80
2023-12-04T05:15:49.336Z,8.57
2023-12-04T05:18:17.849Z,7.40
2023-12-04T05:20:46.268Z,9.47
2023-12-04T05:23:14.661Z,6.10
2023-12-04T05:25:48.209Z,6.50
2023-12-04T05:28:19.303Z,6.70
2023-12-04T05:30:49.425Z,5.80
2023-12-04T05:33:18.038Z,4.13
2023-12-04T05:35:46.584Z,4.30
2023-12-04T05:38:14.991Z,2.10
2023-12-04T05:40:43.597Z,7.97
2023-12-04T05:43:12.184Z,7.17
2023-12-04T05:45:41.574Z,8.00
2023-12-04T05:48:11.713Z,9.70
2023-12-04T05:50:40.129Z,10.30
2023-12-04T05:53:09.504Z,6.53
2023-12-04T05:55:37.921Z,6.57
2023-12-04T05:58:06.353Z,8.03
2023-12-04T06:00:34.811Z,3.10
2023-12-04T06:03:03.445Z,1.90
2023-12-04T06:05:33.437Z,5.53
2023-12-04T06:08:01.897Z,4.30
2023-12-04T06:10:30.311Z,3.30
2023-12-04T06:12:57.835Z,3.37
2023-12-04T06:15:26.314Z,4.77
2023-12-04T06:17:54.697Z,2.90
2023-12-04T06:20:23.151Z,3.50
2023-12-04T06:22:53.377Z,4.67
2023-12-04T06:25:22.761Z,2.73
2023-12-04T06:27:52.508Z,2.97
2023-12-04T06:30:21.808Z,3.60
2023-12-04T06:32:50.526Z,7.87
2023-12-04T06:35:21.048Z,5.10
2023-12-04T06:37:51.235Z,6.30
2023-12-04T06:40:22.000Z,4.70
2023-12-04T06:42:50.793Z,5.97
2023-12-04T06:45:19.816Z,8.17
2023-12-04T06:47:48.888Z,5.13
2023-12-04T06:50:17.439Z,2.97
2023-12-04T06:52:45.827Z,3.50
2023-12-04T06:55:14.995Z,3.70
2023-12-04T06:57:44.953Z,3.40
2023-12-04T07:00:21.361Z,4.97
2023-12-04T07:02:51.471Z,6.50
2023-12-04T07:05:20.829Z,4.47
2023-12-04T07:07:49.267Z,5.77
2023-12-04T07:10:17.747Z,8.83
2023-12-04T07:12:48.163Z,5.83
2023-12-04T07:15:19.269Z,7.30
2023-12-04T07:17:47.995Z,5.57
2023-12-04T07:20:16.584Z,6.27
2023-12-04T07:22:54.788Z,5.03
2023-12-04T07:25:24.088Z,6.70
2023-12-04T07:27:54.377Z,8.23
2023-12-04T07:30:22.938Z,6.53
2023-12-04T07:32:51.468Z,2.93
2023-12-04T07:35:20.275Z,8.27
2023-12-04T07:37:50.136Z,8.97
2023-12-04T07:40:21.394Z,5.63
2023-12-04T07:42:56.891Z,8.40
2023-12-04T07:45:28.943Z,9.27
2023-12-04T07:47:57.655Z,5.27
2023-12-04T07:50:26.604Z,5.03
2023-12-04T07:52:56.417Z,5.33
2023-12-04T07:55:24.983Z,6.57
2023-12-04T07:57:53.692Z,7.73
2023-12-04T08:00:23.933Z,9.13
2023-12-04T08:02:56.297Z,6.77
2023-12-04T08:05:28.679Z,7.83
2023-12-04T08:07:58.854Z,8.20
2023-12-04T08:10:27.430Z,7.73
2023-12-04T08:12:56.712Z,1.10
2023-12-04T08:15:25.258Z,2.73
2023-12-04T08:17:59.191Z,2.50
2023-12-04T08:20:34.001Z,3.90
2023-12-04T08:23:08.636Z,2.77
2023-12-04T08:25:38.905Z,2.13
2023-12-04T08:28:10.205Z,3.83
2023-12-04T08:30:39.024Z,5.83
2023-12-04T08:33:09.090Z,2.60
2023-12-04T08:35:37.933Z,1.63
2023-12-04T08:38:06.743Z,8.30
2023-12-04T08:40:35.605Z,6.70
2023-12-04T08:43:05.062Z,2.50
2023-12-04T08:45:34.902Z,4.20
2023-12-04T08:48:03.790Z,1.70
2023-12-04T08:50:36.027Z,0.80
2023-12-04T08:53:05.860Z,7.97
2023-12-04T08:55:38.272Z,4.10
2023-12-04T08:58:06.939Z,4.70
2023-12-04T09:00:45.173Z,5.23
2023-12-04T09:03:18.766Z,6.20
2023-12-04T09:05:58.572Z,1.57
2023-12-04T09:08:35.513Z,3.40
2023-12-04T09:11:18.681Z,1.60
2023-12-04T09:13:52.548Z,1.53
2023-12-04T09:16:21.171Z,3.93
2023-12-04T09:18:49.960Z,1.07
2023-12-04T09:23:00.482Z,5.07
2023-12-04T09:24:47.881Z,3.03
2023-12-04T09:27:21.166Z,4.87
2023-12-04T09:29:56.032Z,2.50
2023-12-04T09:32:27.666Z,3.87
2023-12-04T09:34:56.518Z,2.67
2023-12-04T09:37:25.455Z,2.83
2023-12-04T09:39:57.469Z,1.73
2023-12-04T09:42:26.292Z,2.43
2023-12-04T09:44:55.463Z,2.00
2023-12-04T09:47:24.506Z,2.97
2023-12-04T09:49:55.381Z,2.33
2023-12-04T09:52:24.342Z,3.03
2023-12-04T09:54:53.774Z,2.23
2023-12-04T09:57:27.007Z,1.37
2023-12-04T09:59:55.868Z,4.53
2023-12-04T10:02:28.023Z,6.30
2023-12-04T10:05:05.637Z,3.13
2023-12-04T10:07:34.983Z,4.13
2023-12-04T10:10:08.861Z,2.47
2023-12-04T10:12:47.257Z,2.63
2023-12-04T10:15:22.063Z,3.10
2023-12-04T10:17:50.691Z,3.20
2023-12-04T10:20:20.103Z,4.83
2023-12-04T10:22:59.701Z,3.30
2023-12-04T10:25:33.648Z,2.10
2023-12-04T10:28:16.945Z,2.37
2023-12-04T10:30:45.712Z,2.57
2023-12-04T10:33:15.479Z,1.17
2023-12-04T10:35:59.304Z,1.67
2023-12-04T10:38:34.616Z,3.00
2023-12-04T10:41:14.894Z,2.07
2023-12-04T10:43:57.511Z,2.97
2023-12-04T10:46:32.818Z,2.03
2023-12-04T10:49:02.519Z,3.67
2023-12-04T10:51:35.794Z,3.83
2023-12-04T10:54:07.208Z,2.63
2023-12-04T10:56:40.675Z,2.30
2023-12-04T10:59:17.255Z,4.00
2023-12-04T11:01:51.885Z,3.00
2023-12-04T11:04:28.683Z,4.17
2023-12-04T11:06:57.394Z,3.43
2023-12-04T11:09:30.685Z,2.20
2023-12-04T11:12:02.432Z,4.73
2023-12-04T11:14:40.223Z,3.90
2023-12-04T11:17:12.595Z,2.20
2023-12-04T11:19:47.419Z,1.73
2023-12-04T11:22:18.928Z,2.93
2023-12-04T11:24:51.310Z,5.30
2023-12-04T11:27:23.239Z,2.77
2023-12-04T11:30:04.284Z,4.07
2023-12-04T11:32:46.949Z,2.67
2023-12-04T11:35:16.554Z,3.33
2023-12-04T11:37:45.565Z,3.30
2023-12-04T11:40:15.598Z,2.13
2023-12-04T11:42:44.710Z,4.97
2023-12-04T11:45:21.786Z,4.23
2023-12-04T11:47:53.831Z,2.33
2023-12-04T11:50:25.189Z,4.10
2023-12-04T11:52:54.799Z,3.80
2023-12-04T11:55:24.167Z,3.40
2023-12-04T11:57:59.003Z,4.60
2023-12-04T12:00:30.826Z,4.43
2023-12-04T12:03:17.575Z,4.13
2023-12-04T12:05:55.073Z,5.90
2023-12-04T12:08:56.825Z,4.93
2023-12-04T12:11:27.881Z,5.00
2023-12-04T12:13:58.089Z,1.67
2023-12-04T12:16:32.182Z,2.33
2023-12-04T12:19:07.477Z,5.70
2023-12-04T12:21:45.450Z,4.60
2023-12-04T12:24:14.837Z,4.03
2023-12-04T12:26:54.527Z,4.37
2023-12-04T12:29:26.253Z,4.23
2023-12-04T12:31:56.104Z,1.73
2023-12-04T12:34:24.742Z,3.23
2023-12-04T12:37:04.862Z,1.90
2023-12-04T12:39:34.228Z,4.00
2023-12-04T12:42:07.062Z,4.27
2023-12-04T12:44:45.287Z,4.50
2023-12-04T12:47:17.446Z,5.63
2023-12-04T12:49:47.829Z,2.80
2023-12-04T12:52:17.156Z,2.00
2023-12-04T12:54:50.457Z,4.07
2023-12-04T12:57:21.395Z,4.20
2023-12-04T12:59:51.915Z,4.07
2023-12-04T13:02:26.120Z,4.50
2023-12-04T13:04:55.822Z,4.17
2023-12-04T13:07:24.556Z,4.63
2023-12-04T13:09:54.397Z,4.27
2023-12-04T13:12:23.146Z,5.70
2023-12-04T13:14:51.809Z,4.80
2023-12-04T13:17:20.305Z,4.20
2023-12-04T13:19:50.463Z,6.17
2023-12-04T13:22:20.710Z,4.73
2023-12-04T13:24:49.431Z,3.97
2023-12-04T13:27:18.125Z,5.93
2023-12-04T13:30:29.413Z,5.73
2023-12-04T13:33:00.504Z,4.63
2023-12-04T13:35:34.103Z,4.40
2023-12-04T13:38:02.917Z,4.37
2023-12-04T13:40:33.811Z,4.57
2023-12-04T13:43:20.022Z,6.03
2023-12-04T13:45:48.768Z,3.30
2023-12-04T13:48:18.253Z,6.43
2023-12-04T13:50:52.366Z,5.43
2023-12-04T13:53:29.778Z,5.70
2023-12-04T13:56:28.985Z,7.07
2023-12-04T13:58:58.450Z,5.73
2023-12-04T14:01:30.041Z,5.40
2023-12-04T14:04:02.742Z,4.93
2023-12-04T14:06:36.169Z,5.87
2023-12-04T14:09:08.565Z,3.53
2023-12-04T14:11:40.973Z,5.83
2023-12-04T14:14:10.230Z,6.83
2023-12-04T14:16:38.974Z,7.33
2023-12-04T14:19:10.722Z,6.33
2023-12-04T14:21:43.189Z,4.80
2023-12-04T14:24:11.730Z,5.33
2023-12-04T14:26:54.626Z,5.97
2023-12-04T14:29:23.245Z,5.50
2023-12-04T14:31:51.969Z,7.17
2023-12-04T14:34:20.843Z,6.33
2023-12-04T14:36:50.951Z,5.67
2023-12-04T14:39:20.174Z,6.70
2023-12-04T14:41:48.931Z,6.77
2023-12-04T14:44:19.568Z,6.37
2023-12-04T14:46:48.588Z,7.83
2023-12-04T14:49:17.618Z,7.87
2023-12-04T14:51:49.943Z,6.67
2023-12-04T14:54:37.064Z,6.27
2023-12-04T14:57:51.775Z,6.37
2023-12-04T15:00:47.019Z,6.80
2023-12-04T15:03:35.628Z,7.40
2023-12-04T15:06:34.177Z,5.13
2023-12-04T15:09:31.953Z,6.53
2023-12-04T15:12:22.744Z,6.00
2023-12-04T15:14:55.768Z,5.67
2023-12-04T15:17:34.438Z,5.97
2023-12-04T15:20:16.902Z,6.77
2023-12-04T15:22:45.641Z,7.03
2023-12-04T15:25:13.249Z,6.27
2023-12-04T15:27:44.089Z,4.90
2023-12-04T15:30:13.919Z,6.30
2023-12-04T15:32:43.091Z,6.43
2023-12-04T15:35:14.844Z,8.00
2023-12-04T15:37:42.916Z,7.10
2023-12-04T15:40:13.220Z,6.37
2023-12-04T15:42:43.785Z,6.00
2023-12-04T15:45:13.204Z,6.33
2023-12-04T15:47:40.815Z,6.97
2023-12-04T15:50:09.989Z,6.70
2023-12-04T15:52:42.237Z,6.87
2023-12-04T15:55:13.665Z,6.93
2023-12-04T15:57:41.372Z,6.70
2023-12-04T16:00:14.475Z,7.83
2023-12-04T16:02:42.543Z,7.97
2023-12-04T16:05:12.794Z,7.93
2023-12-04T16:07:43.745Z,5.40
2023-12-04T16:10:13.960Z,6.80
2023-12-04T16:12:43.369Z,8.30
2023-12-04T16:15:14.118Z,7.87
2023-12-04T16:17:43.041Z,8.10
2023-12-04T16:20:15.123Z,6.73
2023-12-04T16:22:46.892Z,8.83
2023-12-04T16:25:19.543Z,8.63
2023-12-04T16:27:48.875Z,8.43
2023-12-04T16:30:20.514Z,5.70
2023-12-04T16:32:49.351Z,8.07
2023-12-04T16:35:18.180Z,4.37
2023-12-04T16:37:46.824Z,6.23
2023-12-04T16:40:17.145Z,8.30
2023-12-04T16:43:01.169Z,5.93
2023-12-04T16:45:32.934Z,3.77
2023-12-04T16:48:01.768Z,10.83
2023-12-04T16:50:32.965Z,6.57
2023-12-04T16:53:04.403Z,6.50
2023-12-04T16:55:33.272Z,7.47
2023-12-04T16:58:04.879Z,8.87
2023-12-04T17:00:39.388Z,10.07
2023-12-04T17:03:08.117Z,8.93
2023-12-04T17:05:37.447Z,9.77
2023-12-04T17:08:06.321Z,8.90
2023-12-04T17:10:37.703Z,9.37
2023-12-04T17:13:09.200Z,9.10
2023-12-04T17:15:39.279Z,9.20
2023-12-04T17:18:09.578Z,7.70
2023-12-04T17:20:40.592Z,7.50
2023-12-04T17:23:09.077Z,8.90
2023-12-04T17:25:40.167Z,8.30
2023-12-04T17:28:08.780Z,10.23
2023-12-04T17:30:42.830Z,5.47
2023-12-04T17:33:13.380Z,4.63
2023-12-04T17:35:42.461Z,11.83
2023-12-04T17:38:10.976Z,11.07
2023-12-04T17:40:39.437Z,10.10
2023-12-04T17:43:09.066Z,5.77
2023-12-04T17:45:39.474Z,10.33
2023-12-04T17:48:10.559Z,11.03
2023-12-04T17:50:39.192Z,8.53
2023-12-04T17:53:08.310Z,9.30
2023-12-04T17:55:37.168Z,5.70
2023-12-04T17:58:05.718Z,8.53
2023-12-04T18:00:34.354Z,8.73
2023-12-04T18:03:03.051Z,12.73
2023-12-04T18:05:33.029Z,11.80
2023-12-04T18:08:03.260Z,11.47
2023-12-04T18:10:32.285Z,13.13
2023-12-04T18:13:00.806Z,9.03
2023-12-04T18:15:29.215Z,11.83
2023-12-04T18:17:57.728Z,11.13
2023-12-04T18:23:18.820Z,8.87
2023-12-04T18:25:48.521Z,8.97
2023-12-04T18:28:19.885Z,11.33
2023-12-04T18:30:49.014Z,10.10
2023-12-04T18:33:18.079Z,11.03
2023-12-04T18:35:46.917Z,13.73
2023-12-04T18:38:16.392Z,15.83
2023-12-04T18:40:46.657Z,15.53
2023-12-04T18:43:15.481Z,10.47
2023-12-04T18:45:44.452Z,9.90
2023-12-04T18:48:14.397Z,10.40
2023-12-04T18:50:46.149Z,10.33
2023-12-04T18:53:17.981Z,14.40
2023-12-04T18:55:51.101Z,13.67
2023-12-04T18:58:19.639Z,16.03
2023-12-04T19:00:48.152Z,11.27
2023-12-04T19:03:16.988Z,16.50
2023-12-04T19:05:46.645Z,11.40
2023-12-04T19:08:15.246Z,17.20
2023-12-04T19:10:44.811Z,12.27
2023-12-04T19:13:14.630Z,13.67
2023-12-04T19:15:43.741Z,15.23
2023-12-04T19:18:12.460Z,15.30
2023-12-04T19:20:41.161Z,11.90
2023-12-04T19:23:10.481Z,10.80
2023-12-04T19:25:49.389Z,16.53
2023-12-04T19:28:21.095Z,13.80
2023-12-04T19:30:49.794Z,10.13
2023-12-04T19:33:25.512Z,13.40
2023-12-04T19:35:56.988Z,12.60
2023-12-04T19:38:25.498Z,15.40
2023-12-04T19:40:54.818Z,17.23
2023-12-04T19:43:24.666Z,9.40
2023-12-04T19:45:53.259Z,13.27
2023-12-04T19:48:21.909Z,13.47
2023-12-04T19:50:50.683Z,11.30
2023-12-04T19:53:19.868Z,7.43
2023-12-04T19:55:48.558Z,12.23
2023-12-04T19:58:17.059Z,15.57
2023-12-04T20:00:47.014Z,14.40
2023-12-04T20:03:15.847Z,10.73
2023-12-04T20:05:45.012Z,18.70
2023-12-04T20:08:15.855Z,10.83
2023-12-04T20:10:44.473Z,14.27
2023-12-04T20:13:15.073Z,17.17
2023-12-04T20:15:43.627Z,12.70
2023-12-04T20:18:13.528Z,7.80
2023-12-04T20:20:42.407Z,14.83
2023-12-04T20:23:11.773Z,15.77
2023-12-04T20:25:43.770Z,15.23
2023-12-04T20:28:14.527Z,15.00
2023-12-04T20:30:42.956Z,16.57
2023-12-04T20:33:12.966Z,13.37
2023-12-04T20:35:41.488Z,12.07
2023-12-04T20:38:10.996Z,8.90
2023-12-04T20:40:39.443Z,16.37
2023-12-04T20:43:08.217Z,18.40
2023-12-04T20:45:37.643Z,15.63
2023-12-04T20:48:07.765Z,12.73
2023-12-04T20:50:38.006Z,4.33
2023-12-04T20:53:06.478Z,6.43
2023-12-04T20:55:34.962Z,15.10
2023-12-04T20:58:04.184Z,14.37
2023-12-04T21:00:35.517Z,10.70
2023-12-04T21:03:04.568Z,11.93
2023-12-04T21:05:33.213Z,11.13
2023-12-04T21:08:06.060Z,12.53
2023-12-04T21:10:35.069Z,8.57
2023-12-04T21:13:03.781Z,10.30
2023-12-04T21:15:32.385Z,12.73
2023-12-04T21:18:01.046Z,12.87
2023-12-04T21:20:30.100Z,12.57
2023-12-04T21:22:58.528Z,15.33
2023-12-04T21:25:28.312Z,6.03
2023-12-04T21:27:57.416Z,6.80
2023-12-04T21:30:26.041Z,11.33
2023-12-04T21:32:54.606Z,13.97
2023-12-04T21:35:23.959Z,9.90
2023-12-04T21:37:52.377Z,10.80
2023-12-04T21:40:21.076Z,11.50
2023-12-04T21:42:51.316Z,4.13
2023-12-04T21:45:22.549Z,7.23
2023-12-04T21:47:51.401Z,9.50
2023-12-04T21:50:20.334Z,12.33
2023-12-04T21:52:49.024Z,10.40
2023-12-04T21:55:17.478Z,10.47
2023-12-04T21:57:46.268Z,8.47
2023-12-04T22:00:17.187Z,9.77
2023-12-04T22:02:46.356Z,7.80
2023-12-04T22:05:15.109Z,7.70
2023-12-04T22:07:44.073Z,10.80
2023-12-04T22:10:12.652Z,8.30
2023-12-04T22:12:41.232Z,11.27
2023-12-04T22:15:10.363Z,7.33
2023-12-04T22:17:41.823Z,9.47
2023-12-04T22:20:10.705Z,15.40
2023-12-04T22:22:39.241Z,10.33
2023-12-04T22:25:08.615Z,7.67
2023-12-04T22:27:37.161Z,7.60
2023-12-04T22:30:06.985Z,19.30
2023-12-04T22:32:35.950Z,11.23
2023-12-04T22:35:06.484Z,8.13
2023-12-04T22:37:34.989Z,7.90
2023-12-04T22:40:04.684Z,6.33
2023-12-04T22:42:33.245Z,6.70
2023-12-04T22:45:01.905Z,11.63
2023-12-04T22:47:30.367Z,8.50
2023-12-04T22:49:58.962Z,12.57
2023-12-04T22:52:29.278Z,7.97
2023-12-04T22:54:58.338Z,22.03
2023-12-04T22:57:26.953Z,18.13
2023-12-04T22:59:55.553Z,17.73
2023-12-04T23:02:24.050Z,20.70
2023-12-04T23:04:53.037Z,21.33
2023-12-04T23:07:21.725Z,10.47
2023-12-04T23:09:51.729Z,16.93
2023-12-04T23:12:20.244Z,18.80
2023-12-04T23:14:48.771Z,13.77
2023-12-04T23:17:17.521Z,15.20
2023-12-04T23:19:46.109Z,14.20
2023-12-04T23:22:15.045Z,12.23
2023-12-04T23:24:43.609Z,9.07
2023-12-04T23:27:14.959Z,13.87
2023-12-04T23:29:44.970Z,12.73
2023-12-04T23:32:13.427Z,18.00
2023-12-04T23:34:41.972Z,13.80
2023-12-04T23:37:10.496Z,7.47
2023-12-04T23:39:39.012Z,14.50
2023-12-04T23:42:08.493Z,17.33
2023-12-04T23:44:38.431Z,13.10
2023-12-04T23:47:07.192Z,12.77
2023-12-04T23:49:35.805Z,21.53
2023-12-04T23:52:04.493Z,18.77
2023-12-04T23:54:33.010Z,15.43
2023-12-04T23:57:01.703Z,13.80
2023-12-04T23:59:30.178Z,10.00
